sensor_id;sensor_type;location;lat;lon;timestamp;pressure;altitude;pressure_sealevel;temperature;humidity
52343;BME280;38277;51.972;4.624;2023-04-29T00:02:51;101750.0;;;11.0;83.5
52343;BME280;38277;51.972;4.624;2023-04-29T00:07:22;101760.0;;;11.0;83.5
52343;BME280;38277;51.972;4.624;2023-04-29T00:12:00;101760.0;;;11.0;83.0
52343;BME280;38277;51.972;4.624;2023-04-29T00:16:43;101760.0;;;11.0;83.0
52343;BME280;38277;51.972;4.624;2023-04-29T00:25:26;101770.0;;;11.0;83.0
52343;BME280;38277;51.972;4.624;2023-04-29T00:30:11;101770.0;;;11.0;83.0
52343;BME280;38277;51.972;4.624;2023-04-29T00:39:03;101780.0;;;11.0;82.5
52343;BME280;38277;51.972;4.624;2023-04-29T00:43:42;101780.0;;;10.9;82.0
52343;BME280;38277;51.972;4.624;2023-04-29T00:48:08;101780.0;;;10.8;81.5
52343;BME280;38277;51.972;4.624;2023-04-29T00:52:22;101780.0;;;10.8;82.0
52343;BME280;38277;51.972;4.624;2023-04-29T00:57:00;101780.0;;;10.8;81.5
52343;BME280;38277;51.972;4.624;2023-04-29T01:03:15;101790.0;;;10.8;82.0
52343;BME280;38277;51.972;4.624;2023-04-29T01:06:08;101790.0;;;10.8;82.0
52343;BME280;38277;51.972;4.624;2023-04-29T01:15:02;101800.0;;;10.8;82.0
52343;BME280;38277;51.972;4.624;2023-04-29T01:20:54;101810.0;;;10.8;82.0
52343;BME280;38277;51.972;4.624;2023-04-29T01:24:03;101800.0;;;10.8;82.0
52343;BME280;38277;51.972;4.624;2023-04-29T01:29:34;101810.0;;;10.7;82.0
52343;BME280;38277;51.972;4.624;2023-04-29T01:33:14;101810.0;;;10.7;82.5
52343;BME280;38277;51.972;4.624;2023-04-29T01:39:53;101820.0;;;10.7;82.5
52343;BME280;38277;51.972;4.624;2023-04-29T01:42:09;101820.0;;;10.7;82.5
52343;BME280;38277;51.972;4.624;2023-04-29T01:46:37;101820.0;;;10.7;82.5
52343;BME280;38277;51.972;4.624;2023-04-29T01:50:51;101810.0;;;10.7;82.5
52343;BME280;38277;51.972;4.624;2023-04-29T01:59:49;101810.0;;;10.7;82.5
52343;BME280;38277;51.972;4.624;2023-04-29T02:08:58;101830.0;;;10.8;82.5
52343;BME280;38277;51.972;4.624;2023-04-29T02:15:10;101840.0;;;10.8;82.5
52343;BME280;38277;51.972;4.624;2023-04-29T02:17:56;101840.0;;;10.8;82.5
52343;BME280;38277;51.972;4.624;2023-04-29T02:22:43;101840.0;;;10.8;82.5
52343;BME280;38277;51.972;4.624;2023-04-29T02:26:44;101850.0;;;10.8;82.5
52343;BME280;38277;51.972;4.624;2023-04-29T02:33:18;101860.0;;;10.8;82.5
52343;BME280;38277;51.972;4.624;2023-04-29T02:35:54;101860.0;;;10.8;82.5
52343;BME280;38277;51.972;4.624;2023-04-29T02:40:33;101860.0;;;10.9;82.5
52343;BME280;38277;51.972;4.624;2023-04-29T02:45:03;101870.0;;;10.9;82.5
52343;BME280;38277;51.972;4.624;2023-04-29T02:49:59;101880.0;;;10.9;82.5
52343;BME280;38277;51.972;4.624;2023-04-29T02:54:55;101880.0;;;11.0;82.0
52343;BME280;38277;51.972;4.624;2023-04-29T02:59:51;101880.0;;;11.0;82.0
52343;BME280;38277;51.972;4.624;2023-04-29T03:07:36;101900.0;;;11.0;81.5
52343;BME280;38277;51.972;4.624;2023-04-29T03:12:32;101890.0;;;11.0;81.5
52343;BME280;38277;51.972;4.624;2023-04-29T03:19:07;101890.0;;;11.1;81.5
52343;BME280;38277;51.972;4.624;2023-04-29T03:22:24;101900.0;;;11.1;81.0
52343;BME280;38277;51.972;4.624;2023-04-29T03:30:07;101900.0;;;11.1;81.0
52343;BME280;38277;51.972;4.624;2023-04-29T03:35:03;101900.0;;;11.1;80.5
52343;BME280;38277;51.972;4.624;2023-04-29T03:39:59;101900.0;;;11.1;80.5
52343;BME280;38277;51.972;4.624;2023-04-29T03:43:29;101910.0;;;11.1;80.5
52343;BME280;38277;51.972;4.624;2023-04-29T03:49:26;101910.0;;;11.1;80.5
52343;BME280;38277;51.972;4.624;2023-04-29T03:52:40;101910.0;;;11.1;80.5
52343;BME280;38277;51.972;4.624;2023-04-29T03:57:01;101910.0;;;11.1;80.5
52343;BME280;38277;51.972;4.624;2023-04-29T04:01:16;101910.0;;;11.1;80.0
52343;BME280;38277;51.972;4.624;2023-04-29T04:07:29;101920.0;;;11.1;80.0
52343;BME280;38277;51.972;4.624;2023-04-29T04:10:31;101930.0;;;11.1;80.0
52343;BME280;38277;51.972;4.624;2023-04-29T04:19:14;101930.0;;;11.1;80.0
52343;BME280;38277;51.972;4.624;2023-04-29T04:25:22;101930.0;;;11.1;80.0
52343;BME280;38277;51.972;4.624;2023-04-29T04:28:40;101940.0;;;11.1;80.0
52343;BME280;38277;51.972;4.624;2023-04-29T04:33:13;101950.0;;;11.1;80.0
52343;BME280;38277;51.972;4.624;2023-04-29T04:37:14;101950.0;;;11.1;80.0
52343;BME280;38277;51.972;4.624;2023-04-29T04:43:39;101960.0;;;11.1;80.0
52343;BME280;38277;51.972;4.624;2023-04-29T04:46:15;101960.0;;;11.1;80.0
52343;BME280;38277;51.972;4.624;2023-04-29T04:55:19;101980.0;;;11.2;80.5
52343;BME280;38277;51.972;4.624;2023-04-29T05:01:28;101990.0;;;11.2;80.5
52343;BME280;38277;51.972;4.624;2023-04-29T05:04:22;102000.0;;;11.2;80.5
52343;BME280;38277;51.972;4.624;2023-04-29T05:09:06;102000.0;;;11.3;81.0
52343;BME280;38277;51.972;4.624;2023-04-29T05:13:20;102000.0;;;11.3;81.0
52343;BME280;38277;51.972;4.624;2023-04-29T05:19:40;102010.0;;;11.3;81.0
52343;BME280;38277;51.972;4.624;2023-04-29T05:22:25;102010.0;;;11.3;81.5
52343;BME280;38277;51.972;4.624;2023-04-29T05:31:28;102020.0;;;11.4;81.5
52343;BME280;38277;51.972;4.624;2023-04-29T05:37:29;102030.0;;;11.4;81.5
52343;BME280;38277;51.972;4.624;2023-04-29T05:40:30;102030.0;;;11.3;82.0
52343;BME280;38277;51.972;4.624;2023-04-29T05:44:56;102040.0;;;11.4;82.0
52343;BME280;38277;51.972;4.624;2023-04-29T05:49:32;102040.0;;;11.4;82.0
52343;BME280;38277;51.972;4.624;2023-04-29T05:55:27;102040.0;;;11.5;82.0
52343;BME280;38277;51.972;4.624;2023-04-29T05:58:15;102050.0;;;11.6;82.0
52343;BME280;38277;51.972;4.624;2023-04-29T06:07:26;102060.0;;;11.8;81.5
52343;BME280;38277;51.972;4.624;2023-04-29T06:13:47;102070.0;;;11.8;81.0
52343;BME280;38277;51.972;4.624;2023-04-29T06:16:43;102080.0;;;11.9;81.0
52343;BME280;38277;51.972;4.624;2023-04-29T06:22:38;102080.0;;;12.0;80.0
52343;BME280;38277;51.972;4.624;2023-04-29T06:25:37;102090.0;;;12.1;79.5
52343;BME280;38277;51.972;4.624;2023-04-29T06:30:34;102100.0;;;12.2;78.5
52343;BME280;38277;51.972;4.624;2023-04-29T06:37:08;102100.0;;;12.4;78.0
52343;BME280;38277;51.972;4.624;2023-04-29T06:45:13;102110.0;;;12.6;76.5
52343;BME280;38277;51.972;4.624;2023-04-29T06:48:31;102120.0;;;12.7;76.0
52343;BME280;38277;51.972;4.624;2023-04-29T06:53:27;102130.0;;;12.8;74.0
52343;BME280;38277;51.972;4.624;2023-04-29T07:01:16;102140.0;;;12.7;72.0
52343;BME280;38277;51.972;4.624;2023-04-29T07:06:14;102140.0;;;12.7;72.0
52343;BME280;38277;51.972;4.624;2023-04-29T07:11:08;102150.0;;;12.8;71.5
52343;BME280;38277;51.972;4.624;2023-04-29T07:16:04;102170.0;;;12.9;70.0
52343;BME280;38277;51.972;4.624;2023-04-29T07:24:07;102170.0;;;12.8;69.5
52343;BME280;38277;51.972;4.624;2023-04-29T07:30:33;102170.0;;;12.8;69.5
52343;BME280;38277;51.972;4.624;2023-04-29T07:33:51;102170.0;;;12.7;69.0
52343;BME280;38277;51.972;4.624;2023-04-29T07:38:47;102170.0;;;12.7;69.0
52343;BME280;38277;51.972;4.624;2023-04-29T07:46:16;102180.0;;;12.9;68.0
52343;BME280;38277;51.972;4.624;2023-04-29T07:54:29;102190.0;;;12.9;67.5
52343;BME280;38277;51.972;4.624;2023-04-29T07:56:08;102190.0;;;13.0;67.5
52343;BME280;38277;51.972;4.624;2023-04-29T08:01:06;102190.0;;;13.0;67.0
52343;BME280;38277;51.972;4.624;2023-04-29T08:07:39;102190.0;;;13.0;66.0
52343;BME280;38277;51.972;4.624;2023-04-29T08:15:07;102180.0;;;13.1;65.5
52343;BME280;38277;51.972;4.624;2023-04-29T08:18:25;102190.0;;;13.2;64.5
52343;BME280;38277;51.972;4.624;2023-04-29T08:23:20;102200.0;;;13.2;64.0
52343;BME280;38277;51.972;4.624;2023-04-29T08:29:55;102200.0;;;13.3;63.5
52343;BME280;38277;51.972;4.624;2023-04-29T08:37:25;102200.0;;;13.8;62.5
52343;BME280;38277;51.972;4.624;2023-04-29T08:40:44;102200.0;;;14.1;61.0
52343;BME280;38277;51.972;4.624;2023-04-29T08:45:36;102210.0;;;14.4;60.0
52343;BME280;38277;51.972;4.624;2023-04-29T08:50:36;102210.0;;;14.7;59.0
52343;BME280;38277;51.972;4.624;2023-04-29T09:00:08;102220.0;;;15.2;59.5
52343;BME280;38277;51.972;4.624;2023-04-29T09:03:34;102220.0;;;15.5;59.5
52343;BME280;38277;51.972;4.624;2023-04-29T09:08:20;102220.0;;;15.9;58.0
52343;BME280;38277;51.972;4.624;2023-04-29T09:13:23;102210.0;;;16.1;57.0
52343;BME280;38277;51.972;4.624;2023-04-29T09:21:11;102210.0;;;16.4;55.5
52343;BME280;38277;51.972;4.624;2023-04-29T09:25:54;102220.0;;;16.3;55.5
52343;BME280;38277;51.972;4.624;2023-04-29T09:30:47;102230.0;;;16.2;55.0
52343;BME280;38277;51.972;4.624;2023-04-29T09:35:45;102230.0;;;16.2;55.0
52343;BME280;38277;51.972;4.624;2023-04-29T09:45:39;102240.0;;;16.1;55.5
52343;BME280;38277;51.972;4.624;2023-04-29T09:48:39;102240.0;;;16.5;55.5
52343;BME280;38277;51.972;4.624;2023-04-29T09:53:35;102230.0;;;16.9;54.5
52343;BME280;38277;51.972;4.624;2023-04-29T09:58:32;102240.0;;;16.9;52.5
52343;BME280;38277;51.972;4.624;2023-04-29T10:05:51;102240.0;;;16.6;52.5
52343;BME280;38277;51.972;4.624;2023-04-29T10:10:47;102250.0;;;16.9;52.5
52343;BME280;38277;51.972;4.624;2023-04-29T10:16:00;102250.0;;;17.2;51.5
52343;BME280;38277;51.972;4.624;2023-04-29T10:20:40;102250.0;;;17.2;51.5
52343;BME280;38277;51.972;4.624;2023-04-29T10:29:58;102260.0;;;17.5;51.5
52343;BME280;38277;51.972;4.624;2023-04-29T10:33:15;102260.0;;;17.7;50.5
52343;BME280;38277;51.972;4.624;2023-04-29T10:38:21;102250.0;;;17.9;49.0
52343;BME280;38277;51.972;4.624;2023-04-29T10:43:05;102240.0;;;17.9;48.5
52343;BME280;38277;51.972;4.624;2023-04-29T10:48:11;102250.0;;;17.7;49.0
52343;BME280;38277;51.972;4.624;2023-04-29T10:55:30;102240.0;;;18.6;48.0
52343;BME280;38277;51.972;4.624;2023-04-29T11:00:27;102240.0;;;20.0;46.0
52343;BME280;38277;51.972;4.624;2023-04-29T11:05:31;102240.0;;;21.4;42.5
52343;BME280;38277;51.972;4.624;2023-04-29T11:11:58;102240.0;;;22.5;39.5
52343;BME280;38277;51.972;4.624;2023-04-29T11:17:51;102240.0;;;24.3;35.0
52343;BME280;38277;51.972;4.624;2023-04-29T11:22:50;102230.0;;;25.8;33.5
52343;BME280;38277;51.972;4.624;2023-04-29T11:27:44;102230.0;;;27.0;30.0
52343;BME280;38277;51.972;4.624;2023-04-29T11:32:42;102220.0;;;28.2;28.0
52343;BME280;38277;51.972;4.624;2023-04-29T11:40:33;102220.0;;;30.3;25.0
52343;BME280;38277;51.972;4.624;2023-04-29T11:45:30;102230.0;;;30.5;24.0
52343;BME280;38277;51.972;4.624;2023-04-29T11:50:28;102230.0;;;29.5;24.5
52343;BME280;38277;51.972;4.624;2023-04-29T11:57:01;102220.0;;;28.7;26.0
52343;BME280;38277;51.972;4.624;2023-04-29T12:02:57;102210.0;;;31.6;23.0
52343;BME280;38277;51.972;4.624;2023-04-29T12:07:53;102220.0;;;32.7;22.0
52343;BME280;38277;51.972;4.624;2023-04-29T12:12:49;102210.0;;;33.1;20.5
52343;BME280;38277;51.972;4.624;2023-04-29T12:17:46;102210.0;;;33.9;20.5
52343;BME280;38277;51.972;4.624;2023-04-29T12:25:40;102210.0;;;33.8;19.5
52343;BME280;38277;51.972;4.624;2023-04-29T12:30:36;102220.0;;;34.4;19.0
52343;BME280;38277;51.972;4.624;2023-04-29T12:35:32;102210.0;;;35.1;19.0
52343;BME280;38277;51.972;4.624;2023-04-29T12:42:13;102220.0;;;33.9;19.0
52343;BME280;38277;51.972;4.624;2023-04-29T12:48:03;102220.0;;;32.4;20.5
52343;BME280;38277;51.972;4.624;2023-04-29T12:52:59;102230.0;;;30.2;22.5
52343;BME280;38277;51.972;4.624;2023-04-29T12:57:55;102240.0;;;27.8;25.0
52343;BME280;38277;51.972;4.624;2023-04-29T13:02:51;102230.0;;;28.1;25.5
52343;BME280;38277;51.972;4.624;2023-04-29T13:10:36;102240.0;;;26.3;28.0
52343;BME280;38277;51.972;4.624;2023-04-29T13:15:32;102240.0;;;26.9;28.5
52343;BME280;38277;51.972;4.624;2023-04-29T13:20:28;102240.0;;;28.3;26.5
52343;BME280;38277;51.972;4.624;2023-04-29T13:27:03;102240.0;;;29.5;26.0
52343;BME280;38277;51.972;4.624;2023-04-29T13:34:29;102240.0;;;30.2;24.0
52343;BME280;38277;51.972;4.624;2023-04-29T13:37:46;102230.0;;;31.2;23.0
52343;BME280;38277;51.972;4.624;2023-04-29T13:42:42;102240.0;;;31.8;22.0
52343;BME280;38277;51.972;4.624;2023-04-29T13:47:38;102260.0;;;31.0;23.0
52343;BME280;38277;51.972;4.624;2023-04-29T13:55:23;102260.0;;;30.6;24.0
52343;BME280;38277;51.972;4.624;2023-04-29T14:00:20;102260.0;;;31.8;22.5
52343;BME280;38277;51.972;4.624;2023-04-29T14:05:16;102250.0;;;32.5;22.0
52343;BME280;38277;51.972;4.624;2023-04-29T14:11:51;102250.0;;;33.1;21.0
52343;BME280;38277;51.972;4.624;2023-04-29T14:17:50;102260.0;;;32.2;21.0
52343;BME280;38277;51.972;4.624;2023-04-29T14:22:47;102270.0;;;31.1;22.5
52343;BME280;38277;51.972;4.624;2023-04-29T14:27:43;102260.0;;;30.2;23.0
52343;BME280;38277;51.972;4.624;2023-04-29T14:32:39;102270.0;;;28.9;24.5
52343;BME280;38277;51.972;4.624;2023-04-29T14:37:35;102270.0;;;27.7;26.0
52343;BME280;38277;51.972;4.624;2023-04-29T14:44:54;102270.0;;;29.5;24.0
52343;BME280;38277;51.972;4.624;2023-04-29T14:49:51;102270.0;;;30.4;23.0
52343;BME280;38277;51.972;4.624;2023-04-29T14:56:26;102280.0;;;31.2;22.0
52343;BME280;38277;51.972;4.624;2023-04-29T14:59:43;102270.0;;;31.9;21.0
52343;BME280;38277;51.972;4.624;2023-04-29T15:07:16;102290.0;;;32.0;21.0
52343;BME280;38277;51.972;4.624;2023-04-29T15:12:13;102290.0;;;32.5;20.5
52343;BME280;38277;51.972;4.624;2023-04-29T15:17:09;102290.0;;;32.7;20.5
52343;BME280;38277;51.972;4.624;2023-04-29T15:28:08;102290.0;;;33.0;19.5
52343;BME280;38277;51.972;4.624;2023-04-29T15:31:09;102290.0;;;32.8;20.0
52343;BME280;38277;51.972;4.624;2023-04-29T15:40:12;102290.0;;;33.1;19.5
52343;BME280;38277;51.972;4.624;2023-04-29T15:52:16;102300.0;;;32.7;20.0
52343;BME280;38277;51.972;4.624;2023-04-29T15:58:19;102300.0;;;32.2;20.5
52343;BME280;38277;51.972;4.624;2023-04-29T16:07:21;102310.0;;;31.4;21.0
52343;BME280;38277;51.972;4.624;2023-04-29T16:16:25;102310.0;;;28.0;24.5
52343;BME280;38277;51.972;4.624;2023-04-29T16:25:28;102340.0;;;25.5;27.5
52343;BME280;38277;51.972;4.624;2023-04-29T16:34:31;102340.0;;;23.1;30.5
52343;BME280;38277;51.972;4.624;2023-04-29T16:43:34;102340.0;;;21.2;33.0
52343;BME280;38277;51.972;4.624;2023-04-29T16:52:37;102340.0;;;21.2;33.5
52343;BME280;38277;51.972;4.624;2023-04-29T17:04:41;102340.0;;;21.9;32.0
52343;BME280;38277;51.972;4.624;2023-04-29T17:10:43;102340.0;;;21.6;32.0
52343;BME280;38277;51.972;4.624;2023-04-29T17:19:46;102340.0;;;20.7;33.0
52343;BME280;38277;51.972;4.624;2023-04-29T17:28:50;102350.0;;;19.6;34.5
52343;BME280;38277;51.972;4.624;2023-04-29T17:40:54;102360.0;;;19.2;35.0
52343;BME280;38277;51.972;4.624;2023-04-29T17:46:56;102360.0;;;19.1;35.0
52343;BME280;38277;51.972;4.624;2023-04-29T17:55:59;102360.0;;;18.9;33.5
52343;BME280;38277;51.972;4.624;2023-04-29T18:05:02;102360.0;;;17.8;34.5
52343;BME280;38277;51.972;4.624;2023-04-29T18:17:06;102380.0;;;16.5;36.5
52343;BME280;38277;51.972;4.624;2023-04-29T18:23:08;102390.0;;;15.7;39.0
52343;BME280;38277;51.972;4.624;2023-04-29T18:32:12;102390.0;;;15.1;41.0
52343;BME280;38277;51.972;4.624;2023-04-29T18:41:15;102400.0;;;14.6;42.5
52343;BME280;38277;51.972;4.624;2023-04-29T18:50:18;102400.0;;;14.2;43.5
52343;BME280;38277;51.972;4.624;2023-04-29T18:59:21;102400.0;;;13.9;44.0
52343;BME280;38277;51.972;4.624;2023-04-29T19:08:24;102410.0;;;13.7;44.5
52343;BME280;38277;51.972;4.624;2023-04-29T19:17:27;102430.0;;;13.6;46.0
52343;BME280;38277;51.972;4.624;2023-04-29T19:29:31;102450.0;;;13.4;47.0
52343;BME280;38277;51.972;4.624;2023-04-29T19:35:34;102470.0;;;13.2;49.5
52343;BME280;38277;51.972;4.624;2023-04-29T19:47:38;102470.0;;;13.0;51.5
52343;BME280;38277;51.972;4.624;2023-04-29T19:53:40;102480.0;;;12.8;52.5
52343;BME280;38277;51.972;4.624;2023-04-29T20:02:43;102470.0;;;12.7;53.5
52343;BME280;38277;51.972;4.624;2023-04-29T20:17:48;102480.0;;;12.6;54.0
52343;BME280;38277;51.972;4.624;2023-04-29T20:20:49;102480.0;;;12.4;55.0
52343;BME280;38277;51.972;4.624;2023-04-29T20:34:44;102490.0;;;12.1;56.5
52343;BME280;38277;51.972;4.624;2023-04-29T20:43:47;102500.0;;;12.0;57.5
52343;BME280;38277;51.972;4.624;2023-04-29T20:49:50;102510.0;;;11.8;57.5
52343;BME280;38277;51.972;4.624;2023-04-29T20:58:53;102510.0;;;11.7;58.0
52343;BME280;38277;51.972;4.624;2023-04-29T21:10:57;102520.0;;;11.6;59.0
52343;BME280;38277;51.972;4.624;2023-04-29T21:16:59;102510.0;;;11.5;59.0
52343;BME280;38277;51.972;4.624;2023-04-29T21:26:02;102520.0;;;11.4;60.0
52343;BME280;38277;51.972;4.624;2023-04-29T21:35:05;102530.0;;;11.3;61.0
52343;BME280;38277;51.972;4.624;2023-04-29T21:44:08;102530.0;;;11.1;61.0
52343;BME280;38277;51.972;4.624;2023-04-29T21:59:14;102530.0;;;11.0;62.5
52343;BME280;38277;51.972;4.624;2023-04-29T22:02:15;102530.0;;;10.9;62.5
52343;BME280;38277;51.972;4.624;2023-04-29T22:11:18;102530.0;;;10.9;63.0
52343;BME280;38277;51.972;4.624;2023-04-29T22:20:21;102550.0;;;10.8;63.5
52343;BME280;38277;51.972;4.624;2023-04-29T22:29:24;102540.0;;;10.6;64.0
52343;BME280;38277;51.972;4.624;2023-04-29T22:38:27;102550.0;;;10.5;64.5
52343;BME280;38277;51.972;4.624;2023-04-29T22:47:30;102540.0;;;10.5;65.5
52343;BME280;38277;51.972;4.624;2023-04-29T22:59:34;102550.0;;;10.4;66.0
52343;BME280;38277;51.972;4.624;2023-04-29T23:08:38;102550.0;;;10.3;66.0
52343;BME280;38277;51.972;4.624;2023-04-29T23:14:41;102550.0;;;10.2;66.5
52343;BME280;38277;51.972;4.624;2023-04-29T23:26:44;102560.0;;;10.1;67.0
52343;BME280;38277;51.972;4.624;2023-04-29T23:32:46;102560.0;;;10.0;67.5
52343;BME280;38277;51.972;4.624;2023-04-29T23:41:49;102570.0;;;9.9;68.0
52343;BME280;38277;51.972;4.624;2023-04-29T23:50:52;102570.0;;;9.8;68.5
